Time;durP1;ratioP1;P1;durP2;ratioP2;P2;SDS_P1;SDS_P2;PMS_P1;PMS_P2;Temp;Humidity;BMP_temperature;BMP_pressure;BME280_temperature;BME280_humidity;BME280_pressure;Samples;Min_cycle;Max_cycle;Signal;HPM_P1;HPM_P2
2024/04/04 00:01:11;;;;;;;4.60;1.80;;;;;;;11.79;57.29;99765.55;108093;1256;72610;-78
2024/04/04 00:03:38;;;;;;;4.60;1.50;;;;;;;11.76;57.45;99767.17;108011;1256;61183;-78
2024/04/04 00:06:04;;;;;;;4.70;1.80;;;;;;;11.74;57.39;99770.63;108063;1257;61202;-78
2024/04/04 00:08:31;;;;;;;6.90;2.00;;;;;;;11.71;57.68;99770.77;108057;1257;74476;-77
2024/04/04 00:11:09;;;;;;;6.40;1.80;;;;;;;11.67;57.95;99768.56;108078;1257;72439;-77
2024/04/04 00:13:36;;;;;;;3.80;1.60;;;;;;;11.62;58.18;99769.14;108049;1257;72550;-77
2024/04/04 00:16:03;;;;;;;3.60;1.90;;;;;;;11.59;58.31;99774.00;108101;1256;61161;-78
2024/04/04 00:18:31;;;;;;;3.60;1.60;;;;;;;11.55;58.58;99779.05;107998;1257;61215;-77
2024/04/04 00:20:58;;;;;;;4.80;1.80;;;;;;;11.52;58.72;99784.65;108005;1257;74417;-78
2024/04/04 00:23:25;;;;;;;5.20;2.00;;;;;;;11.52;58.90;99783.58;107948;1257;72484;-77
2024/04/04 00:25:52;;;;;;;3.40;1.80;;;;;;;11.52;58.90;99787.54;107990;1257;71326;-76
2024/04/04 00:28:19;;;;;;;3.60;1.60;;;;;;;11.53;59.13;99790.27;107948;1258;61219;-78
2024/04/04 00:30:45;;;;;;;3.90;1.80;;;;;;;11.52;59.22;99786.09;107950;1257;61077;-79
2024/04/04 00:33:12;;;;;;;4.00;2.00;;;;;;;11.49;59.23;99788.27;108046;1257;74933;-80
2024/04/04 00:35:39;;;;;;;4.50;1.90;;;;;;;11.46;59.38;99789.84;108093;1257;71583;-78
2024/04/04 00:38:06;;;;;;;4.90;1.60;;;;;;;11.45;59.52;99788.50;108065;1257;71485;-77
2024/04/04 00:40:36;;;;;;;5.60;2.00;;;;;;;11.43;59.61;99793.66;107997;1260;61097;-78
2024/04/04 00:43:03;;;;;;;5.80;2.00;;;;;;;11.39;59.74;99790.20;108063;1257;61120;-79
2024/04/04 00:45:31;;;;;;;4.50;2.00;;;;;;;11.36;60.17;99787.14;108043;1257;74664;-78
2024/04/04 00:47:58;;;;;;;5.00;1.90;;;;;;;11.38;60.39;99787.38;107878;1257;72069;-77
2024/04/04 00:50:25;;;;;;;5.20;1.80;;;;;;;11.41;60.43;99785.48;107960;1260;72453;-77
2024/04/04 00:52:52;;;;;;;4.70;2.00;;;;;;;11.41;60.46;99782.66;107967;1259;61230;-78
2024/04/04 00:55:18;;;;;;;4.20;1.60;;;;;;;11.41;60.52;99784.58;108010;1256;61316;-78
2024/04/04 00:57:45;;;;;;;5.40;1.90;;;;;;;11.40;60.54;99779.45;108000;1258;73699;-78
2024/04/04 01:00:15;;;;;;;3.60;1.60;;;;;;;11.38;60.52;99773.38;107892;1257;73222;-76
2024/04/04 01:02:42;;;;;;;4.80;2.00;;;;;;;11.36;60.79;99770.15;108094;1256;72704;-77
2024/04/04 01:05:09;;;;;;;8.40;1.80;;;;;;;11.37;60.94;99774.77;108057;1257;61256;-76
2024/04/04 01:07:36;;;;;;;4.40;1.50;;;;;;;11.32;61.20;99770.11;108088;1256;61209;-77
2024/04/04 01:10:06;;;;;;;4.20;1.50;;;;;;;11.35;61.35;99772.19;108066;1259;73026;-77
2024/04/04 01:12:33;;;;;;;3.40;1.50;;;;;;;11.43;61.28;99769.39;108036;1257;72527;-76
2024/04/04 01:15:00;;;;;;;5.30;1.60;;;;;;;11.45;61.21;99770.05;108016;1259;72757;-78
2024/04/04 01:17:27;;;;;;;4.20;1.80;;;;;;;11.39;61.48;99772.19;107942;1257;61126;-78
2024/04/04 01:19:54;;;;;;;4.50;1.60;;;;;;;11.21;62.22;99770.48;108055;1256;60949;-81
2024/04/04 01:22:21;;;;;;;3.60;1.60;;;;;;;11.24;62.66;99768.27;108035;1257;75658;-79
2024/04/04 01:24:48;;;;;;;4.00;1.60;;;;;;;11.42;62.43;99776.98;108015;1257;72907;-77
2024/04/04 01:27:14;;;;;;;3.40;1.50;;;;;;;11.48;62.20;99772.64;108093;1257;72696;-78
2024/04/04 01:29:45;;;;;;;3.50;1.60;;;;;;;11.50;62.27;99778.30;108067;1255;61121;-76
2024/04/04 01:32:11;;;;;;;3.70;1.50;;;;;;;11.51;62.32;99779.08;108038;1256;61101;-79
2024/04/04 01:34:38;;;;;;;5.40;1.40;;;;;;;11.52;62.44;99782.51;108005;1257;74440;-77
2024/04/04 01:37:05;;;;;;;4.10;1.30;;;;;;;11.50;62.53;99784.23;108027;1257;72762;-77
2024/04/04 01:39:32;;;;;;;3.50;1.50;;;;;;;11.51;62.79;99779.90;107959;1260;72654;-78
2024/04/04 01:41:58;;;;;;;3.30;1.70;;;;;;;11.54;62.99;99781.00;108139;1256;61212;-77
2024/04/04 01:44:25;;;;;;;3.70;1.30;;;;;;;11.53;63.24;99788.44;108083;1256;61086;-78
2024/04/04 01:46:52;;;;;;;3.60;1.40;;;;;;;11.54;63.45;99785.37;108072;1257;74540;-77
2024/04/04 01:49:19;;;;;;;3.10;1.40;;;;;;;11.56;63.63;99791.62;108103;1257;71242;-79
2024/04/04 01:51:49;;;;;;;4.40;1.50;;;;;;;11.56;63.88;99795.52;108009;1256;71585;-75
2024/04/04 01:54:16;;;;;;;3.70;1.60;;;;;;;11.55;64.31;99799.23;108006;1259;61113;-77
2024/04/04 01:56:42;;;;;;;6.30;1.60;;;;;;;11.54;64.56;99805.61;108093;1257;61093;-79
2024/04/04 01:59:12;;;;;;;4.80;1.60;;;;;;;11.52;64.89;99801.29;108115;1256;72315;-78
2024/04/04 02:01:39;;;;;;;3.90;1.50;;;;;;;11.51;65.30;99802.46;108111;1257;72729;-79
2024/04/04 02:04:05;;;;;;;2.90;1.50;;;;;;;11.49;65.67;99804.89;108001;1256;72502;-77
2024/04/04 02:06:32;;;;;;;4.10;1.50;;;;;;;11.47;66.29;99806.45;107989;1257;62093;-76
2024/04/04 02:08:59;;;;;;;4.20;1.50;;;;;;;11.45;66.47;99804.55;107999;1257;60995;-78
2024/04/04 02:11:26;;;;;;;4.50;1.90;;;;;;;11.42;66.98;99806.13;108010;1256;74713;-78
2024/04/04 02:13:52;;;;;;;4.00;1.60;;;;;;;11.38;67.45;99808.23;107986;1256;71239;-78
2024/04/04 02:16:23;;;;;;;2.90;1.60;;;;;;;11.36;67.78;99811.26;108068;1256;72621;-78
2024/04/04 02:18:51;;;;;;;3.20;1.50;;;;;;;11.34;68.25;99814.44;108015;1257;61330;-78
2024/04/04 02:21:18;;;;;;;3.40;1.70;;;;;;;11.27;68.82;99814.80;108068;1257;61122;-78
2024/04/04 02:23:44;;;;;;;4.40;1.60;;;;;;;11.23;69.47;99816.05;108069;1257;75242;-78
2024/04/04 02:26:11;;;;;;;3.70;1.70;;;;;;;11.20;70.29;99820.04;108068;1256;72782;-79
2024/04/04 02:28:38;;;;;;;4.30;1.70;;;;;;;11.22;70.95;99824.36;108022;1255;72342;-78
2024/04/04 02:31:05;;;;;;;3.20;1.60;;;;;;;11.27;71.19;99828.80;107996;1256;61211;-77
2024/04/04 02:33:33;;;;;;;4.50;1.60;;;;;;;11.27;71.44;99829.03;108002;1256;61241;-77
2024/04/04 02:35:59;;;;;;;3.00;1.60;;;;;;;11.27;71.75;99833.46;108036;1256;74475;-78
2024/04/04 02:38:26;;;;;;;4.20;1.70;;;;;;;11.25;72.08;99836.52;107957;1256;72766;-78
2024/04/04 02:40:53;;;;;;;3.30;1.70;;;;;;;11.24;72.51;99836.86;107863;1260;71427;-80
2024/04/04 02:43:20;;;;;;;3.60;2.00;;;;;;;11.21;73.12;99847.67;107866;1256;61261;-77
2024/04/04 02:45:47;;;;;;;3.20;1.70;;;;;;;11.18;74.01;99851.77;108001;1256;61189;-80
2024/04/04 02:48:14;;;;;;;5.00;2.00;;;;;;;11.13;75.16;99862.33;107967;1256;74683;-77
2024/04/04 02:50:41;;;;;;;4.00;1.70;;;;;;;11.05;75.28;99882.31;107822;1257;72591;-77
2024/04/04 02:53:08;;;;;;;4.20;2.00;;;;;;;11.00;74.65;99884.31;107919;1256;72485;-78
2024/04/04 02:55:35;;;;;;;4.80;2.20;;;;;;;10.92;73.90;99888.52;107932;1257;61114;-78
2024/04/04 02:58:02;;;;;;;3.90;1.90;;;;;;;10.86;73.48;99888.29;107997;1259;61234;-77
2024/04/04 03:00:29;;;;;;;2.90;1.70;;;;;;;10.78;72.35;99891.65;107983;1257;74637;-77
2024/04/04 03:02:56;;;;;;;5.60;1.90;;;;;;;10.71;72.31;99876.77;107971;1257;72511;-76
2024/04/04 03:05:23;;;;;;;3.30;1.70;;;;;;;10.63;72.30;99881.02;107944;1259;72545;-77
2024/04/04 03:07:49;;;;;;;3.80;1.90;;;;;;;10.53;71.48;99886.72;107972;1256;61240;-76
2024/04/04 03:10:16;;;;;;;3.50;1.80;;;;;;;10.45;71.12;99892.14;108129;1256;61064;-78
2024/04/04 03:12:43;;;;;;;3.10;1.60;;;;;;;10.41;71.27;99889.65;108062;1257;74674;-78
2024/04/04 03:15:10;;;;;;;5.00;1.90;;;;;;;10.35;71.54;99902.85;107993;1256;72708;-78
2024/04/04 03:17:36;;;;;;;3.30;1.80;;;;;;;10.29;72.18;99898.98;108058;1257;71663;-78
2024/04/04 03:20:05;;;;;;;3.70;1.80;;;;;;;10.23;73.35;99902.48;108014;1256;61221;-77
2024/04/04 03:22:32;;;;;;;4.40;2.00;;;;;;;10.16;74.63;99904.69;107911;1256;61324;-77
2024/04/04 03:24:59;;;;;;;4.30;2.00;;;;;;;10.10;76.12;99906.13;107864;1258;74479;-78
2024/04/04 03:27:26;;;;;;;4.80;2.00;;;;;;;10.05;77.18;99908.48;107941;1256;72750;-77
2024/04/04 03:29:53;;;;;;;3.80;2.00;;;;;;;10.00;78.67;99912.01;107831;1256;71085;-77
2024/04/04 03:32:20;;;;;;;4.20;2.10;;;;;;;9.95;79.64;99911.64;107964;1256;61106;-78
2024/04/04 03:34:47;;;;;;;5.30;2.10;;;;;;;9.90;81.01;99912.83;108045;1256;61128;-78
2024/04/04 03:37:13;;;;;;;4.20;2.20;;;;;;;9.84;82.39;99921.04;108073;1256;74406;-79
2024/04/04 03:39:45;;;;;;;3.50;2.00;;;;;;;9.77;83.50;99934.53;108065;1257;72633;-78
2024/04/04 03:42:12;;;;;;;3.00;1.70;;;;;;;9.71;83.38;99936.52;108063;1256;72659;-78
2024/04/04 03:44:39;;;;;;;3.80;1.30;;;;;;;9.65;80.81;99939.38;108004;1256;61816;-76
2024/04/04 03:47:06;;;;;;;2.50;1.20;;;;;;;9.59;76.11;99943.91;108055;1256;61299;-77
2024/04/04 03:49:33;;;;;;;2.30;1.10;;;;;;;9.53;73.33;99950.45;108000;1259;73991;-77
2024/04/04 03:52:00;;;;;;;2.20;0.90;;;;;;;9.46;70.30;99943.90;108102;1256;71572;-78
2024/04/04 03:54:27;;;;;;;2.60;1.20;;;;;;;9.38;67.89;99953.27;107962;1257;72748;-77
2024/04/04 03:56:53;;;;;;;2.50;1.10;;;;;;;9.32;66.04;99954.90;107977;1256;61064;-77
2024/04/04 03:59:33;;;;;;;2.60;1.20;;;;;;;9.23;64.88;99962.61;108009;1257;61327;-79
2024/04/04 04:02:00;;;;;;;2.30;1.10;;;;;;;9.18;64.88;99967.66;107895;1256;75113;-79
2024/04/04 04:04:28;;;;;;;2.30;1.30;;;;;;;9.13;63.57;99971.09;107864;1256;72512;-78
2024/04/04 04:06:54;;;;;;;2.40;1.10;;;;;;;9.10;63.56;99974.45;107848;1260;72764;-78
2024/04/04 04:09:21;;;;;;;3.00;1.20;;;;;;;9.06;62.53;99980.24;107958;1255;61064;-78
2024/04/04 04:11:48;;;;;;;2.90;1.00;;;;;;;9.01;61.26;99988.91;108070;1256;61109;-80
2024/04/04 04:14:15;;;;;;;4.00;1.30;;;;;;;9.00;60.85;99991.77;108115;1256;74543;-80
2024/04/04 04:16:42;;;;;;;2.50;1.10;;;;;;;9.01;61.02;99995.89;108056;1256;72600;-77
2024/04/04 04:19:09;;;;;;;2.80;1.00;;;;;;;9.04;60.58;100008.80;108064;1256;72530;-78
2024/04/04 04:21:36;;;;;;;2.20;1.00;;;;;;;9.09;59.91;100011.42;108128;1256;61122;-79
2024/04/04 04:24:03;;;;;;;3.30;1.00;;;;;;;9.13;59.83;100016.71;108005;1256;61125;-77
2024/04/04 04:26:30;;;;;;;1.80;1.00;;;;;;;9.14;59.66;100019.27;107851;1258;74717;-77
2024/04/04 04:28:59;;;;;;;1.80;1.00;;;;;;;9.13;59.26;100021.89;107909;1257;72592;-78
2024/04/04 04:31:26;;;;;;;2.70;1.10;;;;;;;9.09;59.07;100038.55;108097;1258;72600;-76
2024/04/04 04:33:54;;;;;;;1.90;1.10;;;;;;;9.03;58.57;100030.52;108048;1257;59975;-79
2024/04/04 04:36:31;;;;;;;2.20;1.10;;;;;;;8.99;58.89;100033.58;108110;1257;61207;-78
2024/04/04 04:38:58;;;;;;;1.50;0.90;;;;;;;8.97;58.98;100037.84;108268;1256;74472;-79
2024/04/04 04:41:25;;;;;;;1.40;1.00;;;;;;;8.94;59.44;100034.32;108102;1256;72790;-79
2024/04/04 04:43:52;;;;;;;1.40;1.00;;;;;;;8.94;59.54;100037.94;108047;1256;72642;-80
2024/04/04 04:46:19;;;;;;;2.70;1.20;;;;;;;8.91;59.81;100040.26;108009;1257;61259;-79
2024/04/04 04:48:46;;;;;;;1.60;0.80;;;;;;;8.90;59.55;100055.33;107925;1255;61321;-80
2024/04/04 04:51:13;;;;;;;1.60;0.90;;;;;;;8.82;58.72;100053.05;108053;1256;74478;-77
2024/04/04 04:53:40;;;;;;;1.60;0.90;;;;;;;8.72;58.14;100057.09;107966;1256;71288;-80
2024/04/04 04:56:07;;;;;;;1.70;0.90;;;;;;;8.60;58.05;100054.94;107878;1257;72611;-79
2024/04/04 04:58:33;;;;;;;1.80;0.80;;;;;;;8.51;58.59;100061.20;107826;1259;61138;-78
2024/04/04 05:01:01;;;;;;;1.20;0.80;;;;;;;8.44;58.77;100069.34;108103;1255;61183;-77
2024/04/04 05:03:29;;;;;;;1.70;0.90;;;;;;;8.38;58.58;100067.42;107863;1257;75691;-80
2024/04/04 05:05:56;;;;;;;1.40;0.80;;;;;;;8.36;58.39;100076.23;108019;1257;72706;-78
2024/04/04 05:08:23;;;;;;;2.10;0.80;;;;;;;8.35;58.01;100067.42;108001;1257;72745;-78
2024/04/04 05:10:51;;;;;;;1.50;0.80;;;;;;;8.36;58.49;100067.94;108088;1255;61221;-78
2024/04/04 05:13:18;;;;;;;2.00;1.20;;;;;;;8.41;58.73;100071.93;108044;1256;61071;-78
2024/04/04 05:15:53;;;;;;;2.40;0.90;;;;;;;8.49;58.52;100077.41;107986;1256;73110;-79
2024/04/04 05:18:21;;;;;;;3.00;1.10;;;;;;;8.54;58.01;100077.56;107944;1256;72965;-77
2024/04/04 05:20:48;;;;;;;1.90;0.90;;;;;;;8.59;57.82;100077.14;107954;1257;72718;-78
2024/04/04 05:23:15;;;;;;;2.80;1.00;;;;;;;8.65;57.63;100071.42;107795;1256;61114;-80
2024/04/04 05:25:46;;;;;;;1.70;1.00;;;;;;;8.73;57.58;100074.78;107968;1256;61213;-79
2024/04/04 05:28:13;;;;;;;2.50;1.00;;;;;;;8.83;57.50;100075.64;107914;1257;74630;-79
2024/04/04 05:30:40;;;;;;;4.40;1.20;;;;;;;8.89;57.14;100084.79;107908;1257;72566;-79
2024/04/04 05:33:07;;;;;;;2.30;1.30;;;;;;;8.88;56.83;100083.02;107977;1257;72384;-78
2024/04/04 05:35:34;;;;;;;3.60;1.30;;;;;;;8.85;56.71;100088.01;108056;1256;61122;-78
2024/04/04 05:38:02;;;;;;;2.10;1.10;;;;;;;8.81;57.59;100095.55;107924;1256;61180;-78
2024/04/04 05:40:29;;;;;;;3.00;1.20;;;;;;;8.77;57.75;100110.70;108003;1256;75023;-78
2024/04/04 05:42:56;;;;;;;2.60;1.10;;;;;;;8.75;57.22;100108.05;107852;1259;72697;-79
2024/04/04 05:45:23;;;;;;;3.00;1.20;;;;;;;8.75;57.03;100116.33;107872;1256;72746;-76
2024/04/04 05:47:50;;;;;;;3.40;1.30;;;;;;;8.79;57.00;100109.73;107892;1256;61085;-77
2024/04/04 05:50:16;;;;;;;1.90;1.10;;;;;;;8.84;56.91;100111.66;108046;1256;61085;-78
2024/04/04 05:52:43;;;;;;;1.80;0.90;;;;;;;8.90;57.03;100110.20;107904;1257;74476;-79
2024/04/04 05:55:11;;;;;;;2.00;0.90;;;;;;;8.96;56.85;100105.39;108034;1257;72854;-79
2024/04/04 05:57:38;;;;;;;1.50;0.90;;;;;;;9.02;56.55;100110.17;107798;1257;72512;-79
2024/04/04 06:00:08;;;;;;;2.10;1.20;;;;;;;9.04;55.75;100116.83;107788;1256;61206;-79
2024/04/04 06:02:41;;;;;;;2.00;1.20;;;;;;;9.07;55.95;100113.29;108006;1256;61122;-77
2024/04/04 06:05:08;;;;;;;2.80;1.20;;;;;;;9.18;55.91;100117.67;108128;1256;73904;-78
2024/04/04 06:07:35;;;;;;;1.70;1.00;;;;;;;9.29;55.32;100118.73;108024;1256;73842;-77
2024/04/04 06:10:04;;;;;;;3.90;0.90;;;;;;;9.33;54.18;100126.59;107996;1257;72689;-78
2024/04/04 06:12:31;;;;;;;1.60;1.00;;;;;;;9.31;54.08;100128.77;108009;1259;61107;-76
2024/04/04 06:14:58;;;;;;;1.90;1.10;;;;;;;9.30;54.41;100133.93;108002;1257;61119;-75
2024/04/04 06:17:25;;;;;;;1.90;1.20;;;;;;;9.27;54.52;100146.81;108150;1256;74179;-77
2024/04/04 06:19:54;;;;;;;1.60;1.00;;;;;;;9.22;54.89;100151.27;107974;1259;73869;-76
2024/04/04 06:22:21;;;;;;;1.90;1.20;;;;;;;9.17;54.76;100159.80;107995;1259;72779;-77
2024/04/04 06:24:48;;;;;;;3.00;1.20;;;;;;;9.12;54.80;100158.20;107977;1256;61229;-79
2024/04/04 06:27:17;;;;;;;2.00;1.10;;;;;;;9.14;55.39;100160.06;107968;1259;61139;-78
2024/04/04 06:29:46;;;;;;;2.20;1.00;;;;;;;9.18;55.29;100159.50;108065;1256;74672;-78
2024/04/04 06:32:13;;;;;;;2.60;1.10;;;;;;;9.22;55.13;100163.84;108089;1257;73156;-78
2024/04/04 06:34:40;;;;;;;2.10;1.10;;;;;;;9.23;55.77;100167.41;107937;1256;72746;-77
2024/04/04 06:37:07;;;;;;;5.10;1.10;;;;;;;9.26;55.82;100166.75;107846;1256;61097;-78
2024/04/04 06:39:38;;;;;;;2.50;1.00;;;;;;;9.34;55.24;100176.01;108041;1256;60627;-78
2024/04/04 06:42:05;;;;;;;1.90;0.90;;;;;;;9.38;54.32;100180.15;108035;1255;74566;-78
2024/04/04 06:44:32;;;;;;;4.90;1.20;;;;;;;9.39;54.23;100179.78;107926;1255;74099;-79
2024/04/04 06:46:59;;;;;;;3.10;1.00;;;;;;;9.39;53.83;100188.84;108066;1255;72023;-76
2024/04/04 06:49:26;;;;;;;2.30;1.00;;;;;;;9.32;53.39;100191.30;108087;1256;60982;-78
2024/04/04 06:51:53;;;;;;;2.70;0.90;;;;;;;9.26;53.41;100199.48;108068;1256;61089;-78
2024/04/04 06:54:20;;;;;;;2.10;1.20;;;;;;;9.21;53.44;100195.66;107983;1256;73345;-79
2024/04/04 06:56:47;;;;;;;2.20;1.00;;;;;;;9.17;53.66;100193.91;107985;1256;72711;-79
2024/04/04 06:59:15;;;;;;;2.50;1.30;;;;;;;9.19;54.37;100191.48;107992;1256;72437;-78
2024/04/04 07:01:45;;;;;;;3.20;1.30;;;;;;;9.19;53.95;100206.73;100325;1256;10187781;-79
2024/04/04 07:04:19;;;;;;;3.40;1.40;;;;;;;9.18;53.90;100209.54;107922;1256;74905;-78
2024/04/04 07:06:54;;;;;;;2.90;1.20;;;;;;;9.20;54.09;100206.09;107965;1256;73873;-79
2024/04/04 07:09:24;;;;;;;3.10;1.50;;;;;;;9.22;54.36;100213.63;108060;1255;73871;-78
2024/04/04 07:11:51;;;;;;;2.60;1.30;;;;;;;9.23;54.59;100222.46;108035;1257;61058;-81
2024/04/04 07:14:17;;;;;;;2.50;1.10;;;;;;;9.17;53.51;100226.00;107988;1256;61918;-78
2024/04/04 07:16:44;;;;;;;4.10;1.00;;;;;;;9.06;53.55;100226.08;108008;1256;74670;-78
2024/04/04 07:19:11;;;;;;;3.40;0.80;;;;;;;8.96;53.91;100229.35;107901;1256;73052;-77
2024/04/04 07:21:38;;;;;;;1.40;0.90;;;;;;;8.92;54.27;100230.49;108052;1256;71204;-81
2024/04/04 07:24:05;;;;;;;3.30;1.10;;;;;;;8.91;54.51;100245.04;108082;1256;61256;-79
2024/04/04 07:26:32;;;;;;;2.70;1.00;;;;;;;8.92;54.57;100243.44;108088;1256;61081;-77
2024/04/04 07:29:01;;;;;;;5.40;1.50;;;;;;;8.98;54.46;100247.75;107928;1256;73682;-79
2024/04/04 07:31:28;;;;;;;2.60;1.00;;;;;;;8.99;54.27;100252.50;107970;1256;74096;-78
2024/04/04 07:33:54;;;;;;;2.40;0.80;;;;;;;8.96;53.99;100256.36;107816;1256;72828;-79
2024/04/04 07:36:21;;;;;;;2.80;1.20;;;;;;;9.00;54.55;100256.65;107925;1257;60839;-79
2024/04/04 07:38:49;;;;;;;3.10;1.00;;;;;;;9.06;54.31;100260.34;107996;1256;60196;-77
2024/04/04 07:41:17;;;;;;;1.70;1.10;;;;;;;9.11;53.56;100264.22;108139;1256;75781;-78
2024/04/04 07:43:45;;;;;;;2.10;1.10;;;;;;;9.14;53.22;100268.19;108102;1255;73981;-77
2024/04/04 07:46:12;;;;;;;2.20;1.10;;;;;;;9.18;52.87;100265.50;107897;1256;71531;-78
2024/04/04 07:48:42;;;;;;;3.10;1.20;;;;;;;9.23;52.94;100262.23;107973;1257;61317;-79
2024/04/04 07:51:09;;;;;;;3.40;1.30;;;;;;;9.26;52.95;100262.15;108053;1258;61537;-78
2024/04/04 07:53:36;;;;;;;2.50;1.30;;;;;;;9.30;52.92;100267.56;108024;1257;74675;-80
2024/04/04 07:56:03;;;;;;;4.50;1.30;;;;;;;9.36;52.73;100265.91;108014;1256;72665;-80
2024/04/04 07:58:31;;;;;;;2.30;1.00;;;;;;;9.42;52.37;100271.70;107945;1256;73969;-77
2024/04/04 08:00:58;;;;;;;3.10;1.20;;;;;;;9.43;52.05;100269.58;107964;1255;60151;-78
2024/04/04 08:03:25;;;;;;;1.60;1.00;;;;;;;9.47;52.02;100272.27;108034;1256;61225;-78
2024/04/04 08:05:54;;;;;;;2.10;1.00;;;;;;;9.57;51.67;100267.48;107979;1256;72629;-79
2024/04/04 08:08:21;;;;;;;1.80;1.00;;;;;;;9.67;50.96;100274.05;107979;1257;72688;-78
2024/04/04 08:10:51;;;;;;;1.50;0.90;;;;;;;9.75;50.97;100277.63;108059;1256;73804;-78
2024/04/04 08:13:18;;;;;;;1.60;0.90;;;;;;;9.86;50.53;100284.35;108057;1257;61243;-78
2024/04/04 08:15:49;;;;;;;1.90;1.00;;;;;;;9.97;49.83;100286.27;108085;1256;61422;-78
2024/04/04 08:18:17;;;;;;;1.70;1.00;;;;;;;10.03;48.93;100286.98;108077;1256;74954;-79
2024/04/04 08:20:45;;;;;;;2.20;1.50;;;;;;;9.98;48.65;100285.80;107998;1256;73303;-78
2024/04/04 08:23:13;;;;;;;2.10;1.10;;;;;;;9.93;48.58;100290.73;108046;1255;72206;-79
2024/04/04 08:25:40;;;;;;;2.30;1.00;;;;;;;9.86;48.65;100299.48;107976;1256;61238;-79
2024/04/04 08:28:08;;;;;;;1.70;0.90;;;;;;;9.75;48.66;100292.29;108086;1257;61132;-77
2024/04/04 08:30:35;;;;;;;1.70;1.10;;;;;;;9.70;48.77;100296.27;108171;1255;74683;-77
2024/04/04 08:33:03;;;;;;;2.90;1.20;;;;;;;9.75;48.87;100305.61;108064;1256;74029;-78
2024/04/04 08:35:30;;;;;;;2.20;1.10;;;;;;;9.79;48.98;100300.78;108074;1257;72245;-78
2024/04/04 08:37:56;;;;;;;3.10;1.10;;;;;;;9.81;48.33;100299.42;108060;1256;60966;-77
2024/04/04 08:40:24;;;;;;;2.80;1.20;;;;;;;9.85;48.60;100299.23;108094;1255;61324;-78
2024/04/04 08:42:51;;;;;;;2.70;0.90;;;;;;;9.97;48.06;100310.02;108071;1257;74739;-80
2024/04/04 08:45:19;;;;;;;1.80;1.00;;;;;;;10.09;47.20;100313.23;107990;1257;73004;-85
2024/04/04 08:47:46;;;;;;;1.70;0.90;;;;;;;10.20;46.72;100309.70;108060;1256;73887;-77
2024/04/04 08:50:14;;;;;;;3.00;1.20;;;;;;;10.30;46.43;100309.14;107969;1256;61262;-78
2024/04/04 08:52:41;;;;;;;4.60;1.60;;;;;;;10.38;46.46;100313.93;107886;1260;61186;-77
2024/04/04 08:55:08;;;;;;;2.70;1.10;;;;;;;10.47;46.37;100315.19;107968;1256;75246;-79
2024/04/04 08:57:36;;;;;;;3.00;1.60;;;;;;;10.56;46.55;100322.22;107791;1256;71460;-77
2024/04/04 09:00:11;;;;;;;4.30;1.20;;;;;;;10.64;45.44;100327.80;107947;1256;73796;-78
2024/04/04 09:02:40;;;;;;;3.40;1.10;;;;;;;10.61;45.54;100329.86;107932;1256;61207;-79
2024/04/04 09:05:07;;;;;;;2.60;1.10;;;;;;;10.59;45.54;100334.83;108060;1255;61091;-77
2024/04/04 09:07:37;;;;;;;2.50;1.20;;;;;;;10.60;45.67;100332.27;107977;1260;75601;-78
2024/04/04 09:10:05;;;;;;;1.90;1.10;;;;;;;10.65;45.63;100344.35;108112;1256;72468;-78
2024/04/04 09:12:32;;;;;;;2.70;1.10;;;;;;;10.63;45.28;100339.11;108151;1257;71737;-78
2024/04/04 09:15:00;;;;;;;2.20;1.20;;;;;;;10.60;45.72;100336.70;108051;1257;61103;-79
2024/04/04 09:17:27;;;;;;;2.20;1.10;;;;;;;10.60;45.59;100351.39;108049;1257;60475;-80
2024/04/04 09:19:59;;;;;;;2.50;1.20;;;;;;;10.59;45.34;100355.80;108007;1256;75767;-77
2024/04/04 09:22:25;;;;;;;3.70;1.60;;;;;;;10.61;45.24;100355.55;108030;1257;73072;-78
2024/04/04 09:24:59;;;;;;;3.10;1.30;;;;;;;10.59;45.34;100346.73;108035;1256;71473;-78
2024/04/04 09:27:38;;;;;;;2.10;1.20;;;;;;;10.49;45.72;100343.29;107972;1256;61116;-78
2024/04/04 09:30:10;;;;;;;1.90;1.20;;;;;;;10.47;45.90;100340.88;108005;1256;61081;-78
2024/04/04 09:32:37;;;;;;;;;;;;;;;10.52;46.02;100343.88;107989;1256;75354;-79
2024/04/04 09:35:05;;;;;;;2.40;1.40;;;;;;;10.56;45.52;100339.31;107969;1256;73022;-78
2024/04/04 09:37:32;;;;;;;2.20;1.30;;;;;;;10.54;45.48;100340.67;108049;1256;72777;-78
2024/04/04 09:39:59;;;;;;;2.50;1.30;;;;;;;10.52;45.58;100340.09;107955;1256;61142;-79
2024/04/04 09:42:25;;;;;;;2.90;1.40;;;;;;;10.53;45.70;100341.16;108010;1256;61116;-79
2024/04/04 09:44:54;;;;;;;2.50;1.50;;;;;;;10.51;45.44;100341.31;107792;1256;75902;-79
2024/04/04 09:47:21;;;;;;;2.70;1.40;;;;;;;10.48;45.60;100344.02;108030;1256;72948;-78
2024/04/04 09:49:49;;;;;;;2.80;1.50;;;;;;;10.46;45.74;100338.94;107876;1256;72482;-79
2024/04/04 09:52:22;;;;;;;3.80;1.50;;;;;;;10.46;45.61;100339.33;108006;1256;61616;-79
2024/04/04 09:54:51;;;;;;;2.40;1.40;;;;;;;10.50;45.93;100342.21;107977;1260;61237;-80
2024/04/04 09:57:24;;;;;;;5.00;1.80;;;;;;;10.59;46.05;100341.17;107997;1256;74887;-80
2024/04/04 10:00:17;;;;;;;3.00;1.40;;;;;;;10.68;45.65;100338.17;108007;1256;72851;-79
2024/04/04 10:02:48;;;;;;;2.20;1.30;;;;;;;10.78;45.79;100333.27;107992;1256;71546;-79
2024/04/04 10:05:19;;;;;;;4.80;1.40;;;;;;;10.86;45.99;100333.40;108001;1256;61118;-79
2024/04/04 10:07:48;;;;;;;2.80;1.60;;;;;;;10.94;45.97;100335.30;107993;1256;61554;-79
2024/04/04 10:10:21;;;;;;;3.30;1.40;;;;;;;11.02;45.04;100336.06;107974;1256;74726;-77
2024/04/04 10:12:54;;;;;;;2.20;1.20;;;;;;;11.07;45.32;100331.67;107997;1256;72850;-79
2024/04/04 10:15:22;;;;;;;2.10;1.40;;;;;;;11.15;45.62;100334.20;108061;1256;73955;-78
2024/04/04 10:17:49;;;;;;;3.90;1.50;;;;;;;11.21;45.38;100337.67;108069;1257;61231;-78
2024/04/04 10:20:18;;;;;;;2.80;1.10;;;;;;;11.26;45.50;100338.23;108075;1256;60548;-78
2024/04/04 10:22:45;;;;;;;3.80;1.90;;;;;;;11.37;45.62;100336.24;107984;1256;75152;-77
2024/04/04 10:25:14;;;;;;;4.50;1.50;;;;;;;11.46;45.06;100345.18;107962;1256;73281;-78
2024/04/04 10:27:48;;;;;;;2.70;1.50;;;;;;;11.41;44.71;100346.88;107882;1256;71888;-78
2024/04/04 10:30:33;;;;;;;3.20;1.50;;;;;;;11.32;44.58;100348.91;107947;1256;61122;-80
2024/04/04 10:33:33;;;;;;;2.00;1.30;;;;;;;11.33;44.77;100346.19;107955;1257;61476;-80
2024/04/04 10:36:20;;;;;;;3.20;1.70;;;;;;;11.38;44.77;100347.84;107816;1257;74713;-78
2024/04/04 10:38:47;;;;;;;3.10;1.60;;;;;;;11.46;44.81;100358.27;107972;1257;72149;-80
2024/04/04 10:41:14;;;;;;;3.60;1.60;;;;;;;11.48;44.38;100358.40;108030;1256;71056;-78
2024/04/04 10:43:41;;;;;;;2.90;1.60;;;;;;;11.46;44.52;100352.77;107959;1257;61794;-78
2024/04/04 10:46:08;;;;;;;2.80;1.30;;;;;;;11.50;44.26;100351.16;108024;1256;61122;-78
2024/04/04 10:48:35;;;;;;;3.10;1.90;;;;;;;11.52;44.39;100348.91;107997;1256;75864;-78
2024/04/04 10:51:02;;;;;;;2.70;1.60;;;;;;;11.59;44.96;100349.52;107948;1257;71711;-79
2024/04/04 10:53:29;;;;;;;2.50;1.50;;;;;;;11.69;44.95;100350.04;107862;1260;73866;-79
2024/04/04 10:55:56;;;;;;;2.90;1.60;;;;;;;11.74;44.63;100349.02;108005;1256;61647;-79
2024/04/04 10:58:28;;;;;;;3.30;1.50;;;;;;;11.76;43.83;100352.55;107973;1256;61195;-79
2024/04/04 11:00:55;;;;;;;3.30;1.80;;;;;;;11.71;43.94;100350.19;108001;1256;73487;-78
2024/04/04 11:03:22;;;;;;;3.20;1.50;;;;;;;11.71;43.97;100355.60;107986;1256;73808;-79
2024/04/04 11:05:50;;;;;;;2.40;1.30;;;;;;;11.75;43.89;100350.34;107935;1256;73194;-78
2024/04/04 11:08:20;;;;;;;4.10;1.70;;;;;;;11.80;43.85;100352.54;107945;1256;61095;-79
2024/04/04 11:10:47;;;;;;;3.40;1.40;;;;;;;11.87;43.61;100355.27;108046;1255;60302;-76
2024/04/04 11:13:14;;;;;;;3.50;1.40;;;;;;;11.96;43.73;100344.66;107979;1257;74792;-79
2024/04/04 11:15:42;;;;;;;2.50;1.40;;;;;;;12.08;43.17;100347.05;107968;1257;72694;-77
2024/04/04 11:18:08;;;;;;;4.20;1.30;;;;;;;12.13;42.89;100359.89;107813;1256;71247;-78
2024/04/04 11:20:35;;;;;;;3.20;1.40;;;;;;;12.14;42.56;100355.65;107809;1256;61234;-79
2024/04/04 11:23:02;;;;;;;2.50;1.40;;;;;;;12.19;42.75;100356.39;107695;1255;61100;-78
2024/04/04 11:25:29;;;;;;;2.80;1.50;;;;;;;12.28;43.10;100360.21;108042;1257;75755;-79
2024/04/04 11:27:56;;;;;;;3.90;1.50;;;;;;;12.36;42.86;100364.86;107960;1259;71107;-79